createdAt,value
2022-12-01T00:10:30.382Z,0.48
2022-12-01T00:26:13.070Z,0.43
2022-12-01T00:41:55.764Z,0.41
2022-12-01T00:57:38.224Z,0.4
2022-12-01T01:13:20.885Z,0.34
2022-12-01T01:29:03.469Z,0.31
2022-12-01T01:44:45.768Z,0.29
2022-12-01T02:00:28.284Z,0.27
2022-12-01T02:16:10.991Z,0.23
2022-12-01T02:31:53.861Z,0.16
2022-12-01T02:47:36.550Z,0.06
2022-12-01T03:03:19.189Z,0.04
2022-12-01T03:19:01.517Z,0.03
2022-12-01T03:34:44.038Z,167772.09
2022-12-01T03:50:26.766Z,167772.05
2022-12-01T04:06:09.677Z,167772.01
2022-12-01T04:21:52.425Z,167772
2022-12-01T04:37:35.494Z,167772.05
2022-12-01T04:53:17.794Z,167771.99
2022-12-01T05:09:00.879Z,167771.97
2022-12-01T05:24:43.471Z,167771.92
2022-12-01T05:40:25.645Z,167771.96
2022-12-01T05:56:08.051Z,167772.01
2022-12-01T06:11:50.769Z,167772.06
2022-12-01T06:27:33.455Z,167772.03
2022-12-01T06:43:15.709Z,167772.04
2022-12-01T06:58:58.249Z,167772.15
2022-12-01T07:14:41.218Z,167772.1
2022-12-01T07:30:24.072Z,167772.15
2022-12-01T07:46:06.785Z,0.05
2022-12-01T08:01:49.287Z,0.09
2022-12-01T08:17:31.521Z,0.17
2022-12-01T08:33:14.455Z,0.21
2022-12-01T08:48:57.120Z,0.31
2022-12-01T09:04:39.672Z,0.47
2022-12-01T09:20:22.506Z,0.54
2022-12-01T09:36:05.468Z,0.77
2022-12-01T09:51:48.295Z,1.24
2022-12-01T10:07:31.069Z,1.14
2022-12-01T10:23:14.138Z,0.94
2022-12-01T10:38:57.304Z,0.76
2022-12-01T10:54:40.293Z,0.78
2022-12-01T11:10:22.570Z,0.89
2022-12-01T11:26:05.084Z,0.94
2022-12-01T11:41:47.711Z,0.98
2022-12-01T11:57:30.350Z,1.04
2022-12-01T12:13:13.390Z,1.08
2022-12-01T12:28:56.325Z,1.09
2022-12-01T12:44:39.636Z,1.11
2022-12-01T13:00:22.527Z,1.11
2022-12-01T13:16:05.006Z,1.16
2022-12-01T13:31:48.155Z,1.17
2022-12-01T13:47:31.088Z,1.13
2022-12-01T14:03:14.207Z,1.14
2022-12-01T14:18:57.101Z,1.09
2022-12-01T14:34:40.183Z,1.02
2022-12-01T14:50:22.842Z,0.99
2022-12-01T15:06:05.871Z,0.97
2022-12-01T15:21:48.602Z,0.93
2022-12-01T15:37:31.313Z,0.85
2022-12-01T15:53:14.230Z,0.72
2022-12-01T16:08:56.609Z,0.56
2022-12-01T16:24:38.899Z,0.5
2022-12-01T16:40:21.940Z,0.39
2022-12-01T16:56:04.781Z,0.4
2022-12-01T17:11:47.883Z,0.31
2022-12-01T17:12:35.336Z,0.49
2022-12-01T17:28:18.077Z,0.28
2022-12-01T17:44:01.061Z,0.22
2022-12-01T17:59:43.797Z,0.17
2022-12-01T18:15:26.057Z,0.15
2022-12-01T18:31:09.065Z,0.12
2022-12-01T18:46:51.458Z,0.1
2022-12-01T19:02:34.677Z,0.11
2022-12-01T19:18:17.280Z,0.16
2022-12-01T19:33:59.866Z,0.24
2022-12-01T19:49:42.524Z,0.27
2022-12-01T20:05:24.954Z,0.32
2022-12-01T20:21:07.560Z,0.34
2022-12-01T20:36:50.180Z,0.35
2022-12-01T20:52:32.935Z,0.38
2022-12-01T21:08:16.088Z,0.42
2022-12-01T21:23:58.878Z,0.46
2022-12-01T21:39:41.458Z,0.56
2022-12-01T21:55:24.110Z,0.61
2022-12-01T22:11:06.774Z,0.63
2022-12-01T22:26:49.449Z,0.63
2022-12-01T22:42:32.343Z,0.66
2022-12-01T22:58:15.314Z,0.7
2022-12-01T23:13:57.567Z,0.7
2022-12-01T23:29:40.341Z,0.7
2022-12-01T23:45:23.372Z,0.7
